LTBQ Airport Information

Runway Information
Runway 09 Length 9842 ft width 98 ft
Elevation 182 ft Threshold 0 ft Heading 96
Runway 27 Length 9842 ft Width 98 ft
Elevation 173 ft Threshold 0 ft Heading 276
Airport Frequencies
Type APP Name YESILKOY A Frequency 120.5 MHZ
Type GND Name GND Frequency 121.95 MHZ
Type TWR Name TWR Frequency 122.1 MHZ
Airport Navaids
Type TACAN Name Topel Frequency 113900 KHZ
Type NDB Name Topel Frequency 384 KHZ
Airport Weather Information & NOTAM
ADDS - METARS form results

(1807 UTC 18 March 2019)
Data provider http://aviationweather.gov/metar/data/
 
METAR text: LTBQ 181750Z 27002KT CAVOK 10/07 Q1016 NOSIG
Conditions at: LTBQ (TOPEL (TUR-AFB) , TR) observed 1750 UTC 18 March 2019
Temperature: 10.0°C (50°F)
Dewpoint: 7.0°C (45°F) [RH = 82%]
Pressure (altimeter): 30.00 inches Hg (1016.0 mb)
Winds: from the W (270 degrees) at 2 MPH (2 knots; 1.0 m/s)
Visibility: 6 or more miles (10+ km)
Ceiling: ceiling and visibility are OK
Clouds: unknown
Weather: no significant weather observed at this time

Forecast for: LTBQ (TOPEL (TUR-AFB) , TR)
Text: TAF LTBQ 181640Z 1818/1903 VRB02KT CAVOK
Forecast period: 1800 UTC 18 March 2019 to 0300 UTC 19 March 2019
Forecast type: FROM: standard forecast or significant change
Winds: variable direction winds at 2 MPH (2 knots; 1.0 m/s)
Visibility: 6 or more miles 10+ km)
Ceiling: unknown
Clouds: missing
Weather: NSW  (no significant weather)